sensor_id;sensor_type;location;lat;lon;timestamp;P1;durP1;ratioP1;P2;durP2;ratioP2
22675;SDS011;12521;43.310;21.876;2022-10-16T00:03:35;14.0;;;12.0;;
22675;SDS011;12521;43.310;21.876;2022-10-16T00:08:12;14.0;;;12.0;;
22675;SDS011;12521;43.310;21.876;2022-10-16T00:12:49;16.0;;;13.0;;
22675;SDS011;12521;43.310;21.876;2022-10-16T00:17:26;16.0;;;13.0;;
22675;SDS011;12521;43.310;21.876;2022-10-16T00:22:02;18.0;;;14.0;;
22675;SDS011;12521;43.310;21.876;2022-10-16T00:26:40;18.0;;;14.0;;
22675;SDS011;12521;43.310;21.876;2022-10-16T00:31:19;18.0;;;15.0;;
22675;SDS011;12521;43.310;21.876;2022-10-16T00:36:01;18.0;;;15.0;;
22675;SDS011;12521;43.310;21.876;2022-10-16T00:40:43;18.0;;;16.0;;
22675;SDS011;12521;43.310;21.876;2022-10-16T00:45:19;18.0;;;16.0;;
22675;SDS011;12521;43.310;21.876;2022-10-16T00:50:02;18.0;;;16.0;;
22675;SDS011;12521;43.310;21.876;2022-10-16T00:54:55;18.0;;;16.0;;
22675;SDS011;12521;43.310;21.876;2022-10-16T00:59:39;18.0;;;16.0;;
22675;SDS011;12521;43.310;21.876;2022-10-16T01:04:19;18.0;;;16.0;;
22675;SDS011;12521;43.310;21.876;2022-10-16T01:09:14;18.0;;;16.0;;
22675;SDS011;12521;43.310;21.876;2022-10-16T01:14:31;18.0;;;16.0;;
22675;SDS011;12521;43.310;21.876;2022-10-16T01:19:50;18.0;;;16.0;;
22675;SDS011;12521;43.310;21.876;2022-10-16T01:25:00;19.0;;;15.0;;
22675;SDS011;12521;43.310;21.876;2022-10-16T01:30:13;19.0;;;15.0;;
22675;SDS011;12521;43.310;21.876;2022-10-16T01:35:07;22.0;;;16.0;;
22675;SDS011;12521;43.310;21.876;2022-10-16T01:40:09;22.0;;;16.0;;
22675;SDS011;12521;43.310;21.876;2022-10-16T01:44:57;25.0;;;17.0;;
22675;SDS011;12521;43.310;21.876;2022-10-16T01:49:43;25.0;;;17.0;;
22675;SDS011;12521;43.310;21.876;2022-10-16T01:54:25;22.0;;;16.0;;
22675;SDS011;12521;43.310;21.876;2022-10-16T01:59:16;22.0;;;16.0;;
22675;SDS011;12521;43.310;21.876;2022-10-16T02:04:13;18.0;;;16.0;;
22675;SDS011;12521;43.310;21.876;2022-10-16T02:09:04;18.0;;;16.0;;
22675;SDS011;12521;43.310;21.876;2022-10-16T02:13:45;18.0;;;17.0;;
22675;SDS011;12521;43.310;21.876;2022-10-16T02:18:31;18.0;;;17.0;;
22675;SDS011;12521;43.310;21.876;2022-10-16T02:23:17;19.0;;;18.0;;
22675;SDS011;12521;43.310;21.876;2022-10-16T02:28:17;19.0;;;18.0;;
22675;SDS011;12521;43.310;21.876;2022-10-16T02:33:09;22.0;;;18.0;;
22675;SDS011;12521;43.310;21.876;2022-10-16T02:37:52;22.0;;;18.0;;
22675;SDS011;12521;43.310;21.876;2022-10-16T02:42:34;24.0;;;17.0;;
22675;SDS011;12521;43.310;21.876;2022-10-16T02:47:15;24.0;;;17.0;;
22675;SDS011;12521;43.310;21.876;2022-10-16T02:51:52;26.0;;;18.0;;
22675;SDS011;12521;43.310;21.876;2022-10-16T02:56:29;26.0;;;18.0;;
22675;SDS011;12521;43.310;21.876;2022-10-16T03:01:06;27.0;;;20.0;;
22675;SDS011;12521;43.310;21.876;2022-10-16T03:05:44;27.0;;;20.0;;
22675;SDS011;12521;43.310;21.876;2022-10-16T03:10:21;27.0;;;20.0;;
22675;SDS011;12521;43.310;21.876;2022-10-16T03:14:58;24.0;;;18.0;;
22675;SDS011;12521;43.310;21.876;2022-10-16T03:19:35;24.0;;;18.0;;
22675;SDS011;12521;43.310;21.876;2022-10-16T03:24:11;22.0;;;15.0;;
22675;SDS011;12521;43.310;21.876;2022-10-16T03:28:48;22.0;;;15.0;;
22675;SDS011;12521;43.310;21.876;2022-10-16T03:33:24;18.0;;;14.0;;
22675;SDS011;12521;43.310;21.876;2022-10-16T03:38:01;18.0;;;14.0;;
22675;SDS011;12521;43.310;21.876;2022-10-16T03:42:38;14.0;;;13.0;;
22675;SDS011;12521;43.310;21.876;2022-10-16T03:47:15;14.0;;;13.0;;
22675;SDS011;12521;43.310;21.876;2022-10-16T03:51:52;16.0;;;14.0;;
22675;SDS011;12521;43.310;21.876;2022-10-16T03:56:29;16.0;;;14.0;;
22675;SDS011;12521;43.310;21.876;2022-10-16T04:01:05;17.0;;;15.0;;
22675;SDS011;12521;43.310;21.876;2022-10-16T04:05:43;17.0;;;15.0;;
22675;SDS011;12521;43.310;21.876;2022-10-16T04:10:19;17.0;;;15.0;;
22675;SDS011;12521;43.310;21.876;2022-10-16T04:14:56;18.0;;;16.0;;
22675;SDS011;12521;43.310;21.876;2022-10-16T04:19:32;18.0;;;16.0;;
22675;SDS011;12521;43.310;21.876;2022-10-16T04:24:09;20.0;;;17.0;;
22675;SDS011;12521;43.310;21.876;2022-10-16T04:28:46;20.0;;;17.0;;
22675;SDS011;12521;43.310;21.876;2022-10-16T04:33:22;20.0;;;16.0;;
22675;SDS011;12521;43.310;21.876;2022-10-16T04:37:59;20.0;;;16.0;;
22675;SDS011;12521;43.310;21.876;2022-10-16T04:42:36;20.0;;;16.0;;
22675;SDS011;12521;43.310;21.876;2022-10-16T04:47:13;20.0;;;16.0;;
22675;SDS011;12521;43.310;21.876;2022-10-16T04:57:05;20.0;;;16.0;;
22675;SDS011;12521;43.310;21.876;2022-10-16T05:01:45;20.0;;;15.0;;
22675;SDS011;12521;43.310;21.876;2022-10-16T05:06:22;20.0;;;15.0;;
22675;SDS011;12521;43.310;21.876;2022-10-16T05:10:58;18.0;;;15.0;;
22675;SDS011;12521;43.310;21.876;2022-10-16T05:15:35;18.0;;;15.0;;
22675;SDS011;12521;43.310;21.876;2022-10-16T05:20:12;18.0;;;15.0;;
22675;SDS011;12521;43.310;21.876;2022-10-16T05:24:49;18.0;;;15.0;;
22675;SDS011;12521;43.310;21.876;2022-10-16T05:29:26;16.0;;;15.0;;
22675;SDS011;12521;43.310;21.876;2022-10-16T05:34:04;18.0;;;18.0;;
22675;SDS011;12521;43.310;21.876;2022-10-16T05:38:41;18.0;;;18.0;;
22675;SDS011;12521;43.310;21.876;2022-10-16T05:43:19;21.0;;;20.0;;
22675;SDS011;12521;43.310;21.876;2022-10-16T05:47:56;21.0;;;20.0;;
22675;SDS011;12521;43.310;21.876;2022-10-16T05:52:33;21.0;;;20.0;;
22675;SDS011;12521;43.310;21.876;2022-10-16T05:57:11;21.0;;;20.0;;
22675;SDS011;12521;43.310;21.876;2022-10-16T06:01:48;21.0;;;19.0;;
22675;SDS011;12521;43.310;21.876;2022-10-16T06:06:27;21.0;;;19.0;;
22675;SDS011;12521;43.310;21.876;2022-10-16T06:11:07;26.0;;;22.0;;
22675;SDS011;12521;43.310;21.876;2022-10-16T06:15:51;26.0;;;22.0;;
22675;SDS011;12521;43.310;21.876;2022-10-16T06:20:28;26.0;;;22.0;;
22675;SDS011;12521;43.310;21.876;2022-10-16T06:25:05;32.0;;;26.0;;
22675;SDS011;12521;43.310;21.876;2022-10-16T06:29:44;32.0;;;26.0;;
22675;SDS011;12521;43.310;21.876;2022-10-16T06:34:21;30.0;;;26.0;;
22675;SDS011;12521;43.310;21.876;2022-10-16T06:38:58;30.0;;;26.0;;
22675;SDS011;12521;43.310;21.876;2022-10-16T06:43:35;27.0;;;26.0;;
22675;SDS011;12521;43.310;21.876;2022-10-16T06:48:12;27.0;;;26.0;;
22675;SDS011;12521;43.310;21.876;2022-10-16T06:52:48;22.0;;;20.0;;
22675;SDS011;12521;43.310;21.876;2022-10-16T06:57:25;22.0;;;20.0;;
22675;SDS011;12521;43.310;21.876;2022-10-16T07:02:02;16.0;;;15.0;;
22675;SDS011;12521;43.310;21.876;2022-10-16T07:06:39;16.0;;;15.0;;
22675;SDS011;12521;43.310;21.876;2022-10-16T07:11:19;20.0;;;18.0;;
22675;SDS011;12521;43.310;21.876;2022-10-16T07:16:04;20.0;;;18.0;;
22675;SDS011;12521;43.310;21.876;2022-10-16T07:20:47;20.0;;;18.0;;
22675;SDS011;12521;43.310;21.876;2022-10-16T07:25:24;24.0;;;20.0;;
22675;SDS011;12521;43.310;21.876;2022-10-16T07:30:00;24.0;;;20.0;;
22675;SDS011;12521;43.310;21.876;2022-10-16T07:34:37;22.0;;;17.0;;
22675;SDS011;12521;43.310;21.876;2022-10-16T07:39:13;22.0;;;17.0;;
22675;SDS011;12521;43.310;21.876;2022-10-16T07:43:51;20.0;;;14.0;;
22675;SDS011;12521;43.310;21.876;2022-10-16T07:48:33;20.0;;;14.0;;
22675;SDS011;12521;43.310;21.876;2022-10-16T07:53:11;18.0;;;14.0;;
22675;SDS011;12521;43.310;21.876;2022-10-16T07:57:49;18.0;;;14.0;;
22675;SDS011;12521;43.310;21.876;2022-10-16T08:02:25;16.0;;;14.0;;
22675;SDS011;12521;43.310;21.876;2022-10-16T08:07:02;16.0;;;14.0;;
22675;SDS011;12521;43.310;21.876;2022-10-16T08:11:38;16.0;;;14.0;;
22675;SDS011;12521;43.310;21.876;2022-10-16T08:16:15;16.0;;;14.0;;
22675;SDS011;12521;43.310;21.876;2022-10-16T08:20:56;16.0;;;14.0;;
22675;SDS011;12521;43.310;21.876;2022-10-16T08:25:36;17.0;;;13.0;;
22675;SDS011;12521;43.310;21.876;2022-10-16T08:30:19;17.0;;;13.0;;
22675;SDS011;12521;43.310;21.876;2022-10-16T08:35:00;16.0;;;13.0;;
22675;SDS011;12521;43.310;21.876;2022-10-16T08:39:37;16.0;;;13.0;;
22675;SDS011;12521;43.310;21.876;2022-10-16T08:44:38;16.0;;;13.0;;
22675;SDS011;12521;43.310;21.876;2022-10-16T08:50:23;16.0;;;13.0;;
22675;SDS011;12521;43.310;21.876;2022-10-16T08:55:25;15.0;;;12.0;;
22675;SDS011;12521;43.310;21.876;2022-10-16T09:00:19;15.0;;;12.0;;
22675;SDS011;12521;43.310;21.876;2022-10-16T09:05:23;14.0;;;12.0;;
22675;SDS011;12521;43.310;21.876;2022-10-16T09:10:58;14.0;;;12.0;;
22675;SDS011;12521;43.310;21.876;2022-10-16T09:16:19;14.0;;;12.0;;
22675;SDS011;12521;43.310;21.876;2022-10-16T09:21:20;14.0;;;11.0;;
22675;SDS011;12521;43.310;21.876;2022-10-16T09:26:13;14.0;;;11.0;;
22675;SDS011;12521;43.310;21.876;2022-10-16T09:30:55;14.0;;;11.0;;
22675;SDS011;12521;43.310;21.876;2022-10-16T09:35:37;14.0;;;11.0;;
22675;SDS011;12521;43.310;21.876;2022-10-16T09:40:31;14.0;;;11.0;;
22675;SDS011;12521;43.310;21.876;2022-10-16T09:45:23;14.0;;;11.0;;
22675;SDS011;12521;43.310;21.876;2022-10-16T09:50:05;14.0;;;11.0;;
22675;SDS011;12521;43.310;21.876;2022-10-16T09:55:15;12.0;;;10.0;;
22675;SDS011;12521;43.310;21.876;2022-10-16T09:59:57;12.0;;;10.0;;
22675;SDS011;12521;43.310;21.876;2022-10-16T10:04:50;11.0;;;10.0;;
22675;SDS011;12521;43.310;21.876;2022-10-16T10:09:37;11.0;;;10.0;;
22675;SDS011;12521;43.310;21.876;2022-10-16T10:14:23;10.0;;;10.0;;
22675;SDS011;12521;43.310;21.876;2022-10-16T10:19:15;10.0;;;10.0;;
22675;SDS011;12521;43.310;21.876;2022-10-16T10:23:55;10.0;;;9.0;;
22675;SDS011;12521;43.310;21.876;2022-10-16T10:28:49;10.0;;;9.0;;
22675;SDS011;12521;43.310;21.876;2022-10-16T10:33:54;10.0;;;10.0;;
22675;SDS011;12521;43.310;21.876;2022-10-16T10:38:59;10.0;;;10.0;;
22675;SDS011;12521;43.310;21.876;2022-10-16T10:44:06;11.0;;;11.0;;
22675;SDS011;12521;43.310;21.876;2022-10-16T10:49:50;11.0;;;11.0;;
22675;SDS011;12521;43.310;21.876;2022-10-16T10:55:15;11.0;;;10.0;;
22675;SDS011;12521;43.310;21.876;2022-10-16T11:00:28;11.0;;;10.0;;
22675;SDS011;12521;43.310;21.876;2022-10-16T11:05:44;11.0;;;10.0;;
22675;SDS011;12521;43.310;21.876;2022-10-16T11:10:53;11.0;;;10.0;;
22675;SDS011;12521;43.310;21.876;2022-10-16T11:15:53;10.0;;;10.0;;
22675;SDS011;12521;43.310;21.876;2022-10-16T11:21:05;10.0;;;10.0;;
22675;SDS011;12521;43.310;21.876;2022-10-16T11:26:02;10.0;;;9.0;;
22675;SDS011;12521;43.310;21.876;2022-10-16T11:31:08;10.0;;;9.0;;
22675;SDS011;12521;43.310;21.876;2022-10-16T11:36:12;10.0;;;10.0;;
22675;SDS011;12521;43.310;21.876;2022-10-16T11:41:20;11.0;;;11.0;;
22675;SDS011;12521;43.310;21.876;2022-10-16T11:46:25;11.0;;;11.0;;
22675;SDS011;12521;43.310;21.876;2022-10-16T11:51:25;16.0;;;14.0;;
22675;SDS011;12521;43.310;21.876;2022-10-16T11:56:30;16.0;;;14.0;;
22675;SDS011;12521;43.310;21.876;2022-10-16T12:01:30;22.0;;;16.0;;
22675;SDS011;12521;43.310;21.876;2022-10-16T12:06:37;22.0;;;16.0;;
22675;SDS011;12521;43.310;21.876;2022-10-16T12:11:38;18.0;;;14.0;;
22675;SDS011;12521;43.310;21.876;2022-10-16T12:16:23;18.0;;;14.0;;
22675;SDS011;12521;43.310;21.876;2022-10-16T12:21:00;18.0;;;14.0;;
22675;SDS011;12521;43.310;21.876;2022-10-16T12:25:40;15.0;;;12.0;;
22675;SDS011;12521;43.310;21.876;2022-10-16T12:30:24;15.0;;;12.0;;
22675;SDS011;12521;43.310;21.876;2022-10-16T12:35:20;21.0;;;17.0;;
22675;SDS011;12521;43.310;21.876;2022-10-16T12:40:14;21.0;;;17.0;;
22675;SDS011;12521;43.310;21.876;2022-10-16T12:45:30;27.0;;;22.0;;
22675;SDS011;12521;43.310;21.876;2022-10-16T12:50:27;27.0;;;22.0;;
22675;SDS011;12521;43.310;21.876;2022-10-16T12:55:17;20.0;;;16.0;;
22675;SDS011;12521;43.310;21.876;2022-10-16T13:00:05;20.0;;;16.0;;
22675;SDS011;12521;43.310;21.876;2022-10-16T13:05:26;14.0;;;11.0;;
22675;SDS011;12521;43.310;21.876;2022-10-16T13:10:39;14.0;;;11.0;;
22675;SDS011;12521;43.310;21.876;2022-10-16T13:15:59;14.0;;;10.0;;
22675;SDS011;12521;43.310;21.876;2022-10-16T13:21:41;14.0;;;10.0;;
22675;SDS011;12521;43.310;21.876;2022-10-16T13:26:49;14.0;;;10.0;;
22675;SDS011;12521;43.310;21.876;2022-10-16T13:32:06;14.0;;;10.0;;
22675;SDS011;12521;43.310;21.876;2022-10-16T13:36:53;14.0;;;10.0;;
22675;SDS011;12521;43.310;21.876;2022-10-16T13:41:30;15.0;;;10.0;;
22675;SDS011;12521;43.310;21.876;2022-10-16T13:46:14;15.0;;;10.0;;
22675;SDS011;12521;43.310;21.876;2022-10-16T13:51:00;15.0;;;10.0;;
22675;SDS011;12521;43.310;21.876;2022-10-16T13:55:50;14.0;;;11.0;;
22675;SDS011;12521;43.310;21.876;2022-10-16T14:00:28;14.0;;;11.0;;
22675;SDS011;12521;43.310;21.876;2022-10-16T14:05:10;14.0;;;12.0;;
22675;SDS011;12521;43.310;21.876;2022-10-16T14:09:52;14.0;;;12.0;;
22675;SDS011;12521;43.310;21.876;2022-10-16T14:14:40;22.0;;;18.0;;
22675;SDS011;12521;43.310;21.876;2022-10-16T14:19:27;22.0;;;18.0;;
22675;SDS011;12521;43.310;21.876;2022-10-16T14:24:12;31.0;;;25.0;;
22675;SDS011;12521;43.310;21.876;2022-10-16T14:29:14;31.0;;;25.0;;
22675;SDS011;12521;43.310;21.876;2022-10-16T14:33:57;20.0;;;16.0;;
22675;SDS011;12521;43.310;21.876;2022-10-16T14:38:38;20.0;;;16.0;;
22675;SDS011;12521;43.310;21.876;2022-10-16T14:43:42;10.0;;;8.0;;
22675;SDS011;12521;43.310;21.876;2022-10-16T14:48:20;10.0;;;8.0;;
22675;SDS011;12521;43.310;21.876;2022-10-16T14:52:59;12.0;;;10.0;;
22675;SDS011;12521;43.310;21.876;2022-10-16T14:57:38;12.0;;;10.0;;
22675;SDS011;12521;43.310;21.876;2022-10-16T15:02:28;13.0;;;13.0;;
22675;SDS011;12521;43.310;21.876;2022-10-16T15:07:11;13.0;;;13.0;;
22675;SDS011;12521;43.310;21.876;2022-10-16T15:11:48;12.0;;;12.0;;
22675;SDS011;12521;43.310;21.876;2022-10-16T15:16:25;12.0;;;12.0;;
22675;SDS011;12521;43.310;21.876;2022-10-16T15:21:02;12.0;;;12.0;;
22675;SDS011;12521;43.310;21.876;2022-10-16T15:25:44;12.0;;;11.0;;
22675;SDS011;12521;43.310;21.876;2022-10-16T15:30:28;12.0;;;11.0;;
22675;SDS011;12521;43.310;21.876;2022-10-16T15:35:08;16.0;;;12.0;;
22675;SDS011;12521;43.310;21.876;2022-10-16T15:39:45;16.0;;;12.0;;
22675;SDS011;12521;43.310;21.876;2022-10-16T15:44:22;21.0;;;13.0;;
22675;SDS011;12521;43.310;21.876;2022-10-16T15:48:58;21.0;;;13.0;;
22675;SDS011;12521;43.310;21.876;2022-10-16T15:53:36;19.0;;;14.0;;
22675;SDS011;12521;43.310;21.876;2022-10-16T15:58:12;19.0;;;14.0;;
22675;SDS011;12521;43.310;21.876;2022-10-16T16:02:51;17.0;;;14.0;;
22675;SDS011;12521;43.310;21.876;2022-10-16T16:07:32;17.0;;;14.0;;
22675;SDS011;12521;43.310;21.876;2022-10-16T16:12:11;18.0;;;15.0;;
22675;SDS011;12521;43.310;21.876;2022-10-16T16:16:47;18.0;;;15.0;;
22675;SDS011;12521;43.310;21.876;2022-10-16T16:21:24;18.0;;;15.0;;
22675;SDS011;12521;43.310;21.876;2022-10-16T16:26:06;20.0;;;16.0;;
22675;SDS011;12521;43.310;21.876;2022-10-16T16:31:01;20.0;;;16.0;;
22675;SDS011;12521;43.310;21.876;2022-10-16T16:35:39;20.0;;;16.0;;
22675;SDS011;12521;43.310;21.876;2022-10-16T16:40:16;20.0;;;16.0;;
22675;SDS011;12521;43.310;21.876;2022-10-16T16:44:53;19.0;;;16.0;;
22675;SDS011;12521;43.310;21.876;2022-10-16T16:49:31;19.0;;;16.0;;
22675;SDS011;12521;43.310;21.876;2022-10-16T16:54:10;25.0;;;20.0;;
22675;SDS011;12521;43.310;21.876;2022-10-16T16:58:50;25.0;;;20.0;;
22675;SDS011;12521;43.310;21.876;2022-10-16T17:03:34;31.0;;;24.0;;
22675;SDS011;12521;43.310;21.876;2022-10-16T17:08:12;31.0;;;24.0;;
22675;SDS011;12521;43.310;21.876;2022-10-16T17:12:49;36.0;;;28.0;;
22675;SDS011;12521;43.310;21.876;2022-10-16T17:17:26;36.0;;;28.0;;
22675;SDS011;12521;43.310;21.876;2022-10-16T17:22:03;40.0;;;33.0;;
22675;SDS011;12521;43.310;21.876;2022-10-16T17:26:39;40.0;;;33.0;;
22675;SDS011;12521;43.310;21.876;2022-10-16T17:31:19;40.0;;;33.0;;
22675;SDS011;12521;43.310;21.876;2022-10-16T17:36:06;38.0;;;32.0;;
22675;SDS011;12521;43.310;21.876;2022-10-16T17:40:45;38.0;;;32.0;;
22675;SDS011;12521;43.310;21.876;2022-10-16T17:45:22;37.0;;;31.0;;
22675;SDS011;12521;43.310;21.876;2022-10-16T17:50:00;37.0;;;31.0;;
22675;SDS011;12521;43.310;21.876;2022-10-16T17:54:37;28.0;;;24.0;;
22675;SDS011;12521;43.310;21.876;2022-10-16T17:59:14;28.0;;;24.0;;
22675;SDS011;12521;43.310;21.876;2022-10-16T18:03:54;20.0;;;18.0;;
22675;SDS011;12521;43.310;21.876;2022-10-16T18:08:40;20.0;;;18.0;;
22675;SDS011;12521;43.310;21.876;2022-10-16T18:13:16;28.0;;;22.0;;
22675;SDS011;12521;43.310;21.876;2022-10-16T18:17:53;28.0;;;22.0;;
22675;SDS011;12521;43.310;21.876;2022-10-16T18:22:29;36.0;;;27.0;;
22675;SDS011;12521;43.310;21.876;2022-10-16T18:27:07;36.0;;;27.0;;
22675;SDS011;12521;43.310;21.876;2022-10-16T18:31:44;42.0;;;32.0;;
22675;SDS011;12521;43.310;21.876;2022-10-16T18:36:22;42.0;;;32.0;;
22675;SDS011;12521;43.310;21.876;2022-10-16T18:41:04;42.0;;;32.0;;
22675;SDS011;12521;43.310;21.876;2022-10-16T18:45:40;48.0;;;38.0;;
22675;SDS011;12521;43.310;21.876;2022-10-16T18:50:17;48.0;;;38.0;;
22675;SDS011;12521;43.310;21.876;2022-10-16T18:54:55;44.0;;;37.0;;
22675;SDS011;12521;43.310;21.876;2022-10-16T18:59:32;44.0;;;37.0;;
22675;SDS011;12521;43.310;21.876;2022-10-16T19:04:12;39.0;;;36.0;;
22675;SDS011;12521;43.310;21.876;2022-10-16T19:08:54;39.0;;;36.0;;
22675;SDS011;12521;43.310;21.876;2022-10-16T19:13:33;45.0;;;39.0;;
22675;SDS011;12521;43.310;21.876;2022-10-16T19:18:12;45.0;;;39.0;;
22675;SDS011;12521;43.310;21.876;2022-10-16T19:22:49;51.0;;;42.0;;
22675;SDS011;12521;43.310;21.876;2022-10-16T19:27:26;51.0;;;42.0;;
22675;SDS011;12521;43.310;21.876;2022-10-16T19:32:03;46.0;;;37.0;;
22675;SDS011;12521;43.310;21.876;2022-10-16T19:36:41;46.0;;;37.0;;
22675;SDS011;12521;43.310;21.876;2022-10-16T19:41:19;46.0;;;37.0;;
22675;SDS011;12521;43.310;21.876;2022-10-16T19:46:04;41.0;;;32.0;;
22675;SDS011;12521;43.310;21.876;2022-10-16T19:50:50;41.0;;;32.0;;
22675;SDS011;12521;43.310;21.876;2022-10-16T19:55:30;34.0;;;28.0;;
22675;SDS011;12521;43.310;21.876;2022-10-16T20:00:08;34.0;;;28.0;;
22675;SDS011;12521;43.310;21.876;2022-10-16T20:04:48;27.0;;;24.0;;
22675;SDS011;12521;43.310;21.876;2022-10-16T20:09:25;27.0;;;24.0;;
22675;SDS011;12521;43.310;21.876;2022-10-16T20:14:04;30.0;;;26.0;;
22675;SDS011;12521;43.310;21.876;2022-10-16T20:18:41;30.0;;;26.0;;
22675;SDS011;12521;43.310;21.876;2022-10-16T20:23:21;33.0;;;29.0;;
22675;SDS011;12521;43.310;21.876;2022-10-16T20:27:59;33.0;;;29.0;;
22675;SDS011;12521;43.310;21.876;2022-10-16T20:32:36;30.0;;;26.0;;
22675;SDS011;12521;43.310;21.876;2022-10-16T20:37:12;30.0;;;26.0;;
22675;SDS011;12521;43.310;21.876;2022-10-16T20:41:50;27.0;;;24.0;;
22675;SDS011;12521;43.310;21.876;2022-10-16T20:46:27;27.0;;;24.0;;
22675;SDS011;12521;43.310;21.876;2022-10-16T20:51:13;27.0;;;24.0;;
22675;SDS011;12521;43.310;21.876;2022-10-16T20:55:53;28.0;;;25.0;;
22675;SDS011;12521;43.310;21.876;2022-10-16T21:00:29;28.0;;;25.0;;
22675;SDS011;12521;43.310;21.876;2022-10-16T21:05:07;30.0;;;26.0;;
22675;SDS011;12521;43.310;21.876;2022-10-16T21:09:44;30.0;;;26.0;;
22675;SDS011;12521;43.310;21.876;2022-10-16T21:14:20;32.0;;;26.0;;
22675;SDS011;12521;43.310;21.876;2022-10-16T21:18:57;32.0;;;26.0;;
22675;SDS011;12521;43.310;21.876;2022-10-16T21:23:33;33.0;;;26.0;;
22675;SDS011;12521;43.310;21.876;2022-10-16T21:28:10;33.0;;;26.0;;
22675;SDS011;12521;43.310;21.876;2022-10-16T21:32:46;36.0;;;30.0;;
22675;SDS011;12521;43.310;21.876;2022-10-16T21:37:23;36.0;;;30.0;;
22675;SDS011;12521;43.310;21.876;2022-10-16T21:41:59;40.0;;;33.0;;
22675;SDS011;12521;43.310;21.876;2022-10-16T21:46:39;40.0;;;33.0;;
22675;SDS011;12521;43.310;21.876;2022-10-16T21:51:25;40.0;;;33.0;;
22675;SDS011;12521;43.310;21.876;2022-10-16T21:56:12;49.0;;;40.0;;
22675;SDS011;12521;43.310;21.876;2022-10-16T22:00:53;49.0;;;40.0;;
22675;SDS011;12521;43.310;21.876;2022-10-16T22:05:32;58.0;;;47.0;;
22675;SDS011;12521;43.310;21.876;2022-10-16T22:10:10;58.0;;;47.0;;
22675;SDS011;12521;43.310;21.876;2022-10-16T22:14:46;40.0;;;33.0;;
22675;SDS011;12521;43.310;21.876;2022-10-16T22:19:23;40.0;;;33.0;;
22675;SDS011;12521;43.310;21.876;2022-10-16T22:24:00;23.0;;;19.0;;
22675;SDS011;12521;43.310;21.876;2022-10-16T22:28:40;23.0;;;19.0;;
22675;SDS011;12521;43.310;21.876;2022-10-16T22:33:18;20.0;;;16.0;;
22675;SDS011;12521;43.310;21.876;2022-10-16T22:37:55;20.0;;;16.0;;
22675;SDS011;12521;43.310;21.876;2022-10-16T22:42:32;16.0;;;14.0;;
22675;SDS011;12521;43.310;21.876;2022-10-16T22:47:08;16.0;;;14.0;;
22675;SDS011;12521;43.310;21.876;2022-10-16T22:51:45;16.0;;;14.0;;
22675;SDS011;12521;43.310;21.876;2022-10-16T22:56:23;18.0;;;14.0;;
22675;SDS011;12521;43.310;21.876;2022-10-16T23:01:09;18.0;;;14.0;;
22675;SDS011;12521;43.310;21.876;2022-10-16T23:06:02;21.0;;;15.0;;
22675;SDS011;12521;43.310;21.876;2022-10-16T23:10:43;21.0;;;15.0;;
22675;SDS011;12521;43.310;21.876;2022-10-16T23:15:23;20.0;;;14.0;;
22675;SDS011;12521;43.310;21.876;2022-10-16T23:20:01;20.0;;;14.0;;
22675;SDS011;12521;43.310;21.876;2022-10-16T23:24:40;20.0;;;14.0;;
22675;SDS011;12521;43.310;21.876;2022-10-16T23:29:17;20.0;;;14.0;;
22675;SDS011;12521;43.310;21.876;2022-10-16T23:33:55;22.0;;;18.0;;
22675;SDS011;12521;43.310;21.876;2022-10-16T23:38:33;22.0;;;18.0;;
22675;SDS011;12521;43.310;21.876;2022-10-16T23:43:10;25.0;;;21.0;;
22675;SDS011;12521;43.310;21.876;2022-10-16T23:47:46;25.0;;;21.0;;
22675;SDS011;12521;43.310;21.876;2022-10-16T23:52:23;36.0;;;28.0;;
22675;SDS011;12521;43.310;21.876;2022-10-16T23:56:59;36.0;;;28.0;;
